sensor_id;sensor_type;location;lat;lon;timestamp;temperature;humidity
15556;DHT22;7879;48.660;9.116;2022-11-12T00:00:55;3.60;99.90
15556;DHT22;7879;48.660;9.116;2022-11-12T00:03:25;3.50;99.90
15556;DHT22;7879;48.660;9.116;2022-11-12T00:05:55;3.50;99.90
15556;DHT22;7879;48.660;9.116;2022-11-12T00:08:22;3.60;99.90
15556;DHT22;7879;48.660;9.116;2022-11-12T00:10:49;3.60;99.90
15556;DHT22;7879;48.660;9.116;2022-11-12T00:13:16;3.60;99.90
15556;DHT22;7879;48.660;9.116;2022-11-12T00:15:49;3.60;99.90
15556;DHT22;7879;48.660;9.116;2022-11-12T00:18:16;3.60;99.90
15556;DHT22;7879;48.660;9.116;2022-11-12T00:20:43;3.50;99.90
15556;DHT22;7879;48.660;9.116;2022-11-12T00:23:10;3.50;99.90
15556;DHT22;7879;48.660;9.116;2022-11-12T00:25:37;3.50;99.90
15556;DHT22;7879;48.660;9.116;2022-11-12T00:28:06;3.50;99.90
15556;DHT22;7879;48.660;9.116;2022-11-12T00:30:39;3.50;99.90
15556;DHT22;7879;48.660;9.116;2022-11-12T00:33:07;3.50;99.90
15556;DHT22;7879;48.660;9.116;2022-11-12T00:35:34;3.60;99.90
15556;DHT22;7879;48.660;9.116;2022-11-12T00:38:01;3.60;99.90
15556;DHT22;7879;48.660;9.116;2022-11-12T00:40:28;3.70;99.90
15556;DHT22;7879;48.660;9.116;2022-11-12T00:42:55;3.50;99.90
15556;DHT22;7879;48.660;9.116;2022-11-12T00:45:22;3.50;99.90
15556;DHT22;7879;48.660;9.116;2022-11-12T00:47:55;3.40;99.90
15556;DHT22;7879;48.660;9.116;2022-11-12T00:50:22;3.40;99.90
15556;DHT22;7879;48.660;9.116;2022-11-12T00:52:53;3.40;99.90
15556;DHT22;7879;48.660;9.116;2022-11-12T00:55:20;3.40;99.90
15556;DHT22;7879;48.660;9.116;2022-11-12T00:57:47;3.40;99.90
15556;DHT22;7879;48.660;9.116;2022-11-12T01:00:17;3.40;99.90
15556;DHT22;7879;48.660;9.116;2022-11-12T01:02:45;3.40;99.90
15556;DHT22;7879;48.660;9.116;2022-11-12T01:05:17;3.40;99.90
15556;DHT22;7879;48.660;9.116;2022-11-12T01:07:45;3.30;99.90
15556;DHT22;7879;48.660;9.116;2022-11-12T01:10:17;3.40;99.90
15556;DHT22;7879;48.660;9.116;2022-11-12T01:12:44;3.40;99.90
15556;DHT22;7879;48.660;9.116;2022-11-12T01:15:10;3.40;99.90
15556;DHT22;7879;48.660;9.116;2022-11-12T01:17:37;3.40;99.90
15556;DHT22;7879;48.660;9.116;2022-11-12T01:20:04;3.30;99.90
15556;DHT22;7879;48.660;9.116;2022-11-12T01:22:31;3.40;99.90
15556;DHT22;7879;48.660;9.116;2022-11-12T01:24:58;3.30;99.90
15556;DHT22;7879;48.660;9.116;2022-11-12T01:27:25;3.30;99.90
15556;DHT22;7879;48.660;9.116;2022-11-12T01:29:52;3.30;99.90
15556;DHT22;7879;48.660;9.116;2022-11-12T01:32:18;3.30;99.90
15556;DHT22;7879;48.660;9.116;2022-11-12T01:34:45;3.40;99.90
15556;DHT22;7879;48.660;9.116;2022-11-12T01:37:15;3.30;99.90
15556;DHT22;7879;48.660;9.116;2022-11-12T01:39:46;3.30;99.90
15556;DHT22;7879;48.660;9.116;2022-11-12T01:42:16;3.30;99.90
15556;DHT22;7879;48.660;9.116;2022-11-12T01:44:53;3.40;99.90
15556;DHT22;7879;48.660;9.116;2022-11-12T01:47:31;3.30;99.90
15556;DHT22;7879;48.660;9.116;2022-11-12T01:53:00;3.20;99.90
15556;DHT22;7879;48.660;9.116;2022-11-12T01:55:27;3.10;99.90
15556;DHT22;7879;48.660;9.116;2022-11-12T01:57:59;3.10;99.90
15556;DHT22;7879;48.660;9.116;2022-11-12T02:00:30;3.10;99.90
15556;DHT22;7879;48.660;9.116;2022-11-12T02:03:00;3.10;99.90
15556;DHT22;7879;48.660;9.116;2022-11-12T02:05:28;3.20;99.90
15556;DHT22;7879;48.660;9.116;2022-11-12T02:07:57;3.10;99.90
15556;DHT22;7879;48.660;9.116;2022-11-12T02:10:25;3.10;99.90
15556;DHT22;7879;48.660;9.116;2022-11-12T02:12:53;3.10;99.90
15556;DHT22;7879;48.660;9.116;2022-11-12T02:15:39;3.10;99.90
15556;DHT22;7879;48.660;9.116;2022-11-12T02:18:07;3.20;99.90
15556;DHT22;7879;48.660;9.116;2022-11-12T02:20:37;3.10;99.90
15556;DHT22;7879;48.660;9.116;2022-11-12T02:23:05;3.20;99.90
15556;DHT22;7879;48.660;9.116;2022-11-12T02:25:33;3.20;99.90
15556;DHT22;7879;48.660;9.116;2022-11-12T02:28:02;3.10;99.90
15556;DHT22;7879;48.660;9.116;2022-11-12T02:30:48;3.10;99.90
15556;DHT22;7879;48.660;9.116;2022-11-12T02:33:15;3.10;99.90
15556;DHT22;7879;48.660;9.116;2022-11-12T02:35:42;3.10;99.90
15556;DHT22;7879;48.660;9.116;2022-11-12T02:38:09;3.10;99.90
15556;DHT22;7879;48.660;9.116;2022-11-12T02:40:36;3.20;99.90
15556;DHT22;7879;48.660;9.116;2022-11-12T02:43:03;3.10;99.90
15556;DHT22;7879;48.660;9.116;2022-11-12T02:45:30;3.10;99.90
15556;DHT22;7879;48.660;9.116;2022-11-12T02:47:57;3.00;99.90
15556;DHT22;7879;48.660;9.116;2022-11-12T02:50:24;3.00;99.90
15556;DHT22;7879;48.660;9.116;2022-11-12T02:52:51;3.00;99.90
15556;DHT22;7879;48.660;9.116;2022-11-12T02:55:17;3.00;99.90
15556;DHT22;7879;48.660;9.116;2022-11-12T02:57:44;2.90;99.90
15556;DHT22;7879;48.660;9.116;2022-11-12T03:00:12;2.90;99.90
15556;DHT22;7879;48.660;9.116;2022-11-12T03:02:39;2.90;99.90
15556;DHT22;7879;48.660;9.116;2022-11-12T03:05:11;2.90;99.90
15556;DHT22;7879;48.660;9.116;2022-11-12T03:07:38;2.90;99.90
15556;DHT22;7879;48.660;9.116;2022-11-12T03:10:05;2.90;99.90
15556;DHT22;7879;48.660;9.116;2022-11-12T03:12:32;2.90;99.90
15556;DHT22;7879;48.660;9.116;2022-11-12T03:14:59;3.00;99.90
15556;DHT22;7879;48.660;9.116;2022-11-12T03:17:26;2.90;99.90
15556;DHT22;7879;48.660;9.116;2022-11-12T03:19:53;2.90;99.90
15556;DHT22;7879;48.660;9.116;2022-11-12T03:22:19;2.90;99.90
15556;DHT22;7879;48.660;9.116;2022-11-12T03:24:46;2.80;99.90
15556;DHT22;7879;48.660;9.116;2022-11-12T03:27:13;2.90;99.90
15556;DHT22;7879;48.660;9.116;2022-11-12T03:29:40;2.90;99.90
15556;DHT22;7879;48.660;9.116;2022-11-12T03:32:07;2.90;99.90
15556;DHT22;7879;48.660;9.116;2022-11-12T03:34:33;2.90;99.90
15556;DHT22;7879;48.660;9.116;2022-11-12T03:37:00;2.90;99.90
15556;DHT22;7879;48.660;9.116;2022-11-12T03:39:28;2.90;99.90
15556;DHT22;7879;48.660;9.116;2022-11-12T03:41:55;2.90;99.90
15556;DHT22;7879;48.660;9.116;2022-11-12T03:44:21;2.80;99.90
15556;DHT22;7879;48.660;9.116;2022-11-12T03:46:48;2.80;99.90
15556;DHT22;7879;48.660;9.116;2022-11-12T03:49:15;2.80;99.90
15556;DHT22;7879;48.660;9.116;2022-11-12T03:51:41;2.80;99.90
15556;DHT22;7879;48.660;9.116;2022-11-12T03:54:08;2.70;99.90
15556;DHT22;7879;48.660;9.116;2022-11-12T03:56:35;2.70;99.90
15556;DHT22;7879;48.660;9.116;2022-11-12T03:59:02;2.70;99.90
15556;DHT22;7879;48.660;9.116;2022-11-12T04:01:29;2.70;99.90
15556;DHT22;7879;48.660;9.116;2022-11-12T04:03:56;2.70;99.90
15556;DHT22;7879;48.660;9.116;2022-11-12T04:06:22;2.60;99.90
15556;DHT22;7879;48.660;9.116;2022-11-12T04:09:08;2.60;99.90
15556;DHT22;7879;48.660;9.116;2022-11-12T04:11:34;2.60;99.90
15556;DHT22;7879;48.660;9.116;2022-11-12T04:14:01;2.60;99.90
15556;DHT22;7879;48.660;9.116;2022-11-12T04:16:28;2.60;99.90
15556;DHT22;7879;48.660;9.116;2022-11-12T04:19:13;2.60;99.90
15556;DHT22;7879;48.660;9.116;2022-11-12T04:22:06;2.60;99.90
15556;DHT22;7879;48.660;9.116;2022-11-12T04:24:35;2.60;99.90
15556;DHT22;7879;48.660;9.116;2022-11-12T04:27:26;2.50;99.90
15556;DHT22;7879;48.660;9.116;2022-11-12T04:29:53;2.50;99.90
15556;DHT22;7879;48.660;9.116;2022-11-12T04:32:51;2.50;99.90
15556;DHT22;7879;48.660;9.116;2022-11-12T04:35:21;2.60;99.90
15556;DHT22;7879;48.660;9.116;2022-11-12T04:37:49;2.60;99.90
15556;DHT22;7879;48.660;9.116;2022-11-12T04:40:20;2.60;99.90
15556;DHT22;7879;48.660;9.116;2022-11-12T04:43:08;2.60;99.90
15556;DHT22;7879;48.660;9.116;2022-11-12T04:45:55;2.60;99.90
15556;DHT22;7879;48.660;9.116;2022-11-12T04:48:23;2.50;99.90
15556;DHT22;7879;48.660;9.116;2022-11-12T04:51:02;2.50;99.90
15556;DHT22;7879;48.660;9.116;2022-11-12T04:53:49;2.60;99.90
15556;DHT22;7879;48.660;9.116;2022-11-12T04:56:16;2.60;99.90
15556;DHT22;7879;48.660;9.116;2022-11-12T04:58:43;2.60;99.90
15556;DHT22;7879;48.660;9.116;2022-11-12T05:01:10;2.70;99.90
15556;DHT22;7879;48.660;9.116;2022-11-12T05:03:36;2.70;99.90
15556;DHT22;7879;48.660;9.116;2022-11-12T05:06:04;2.70;99.90
15556;DHT22;7879;48.660;9.116;2022-11-12T05:08:50;2.70;99.90
15556;DHT22;7879;48.660;9.116;2022-11-12T05:11:17;2.70;99.90
15556;DHT22;7879;48.660;9.116;2022-11-12T05:13:44;2.70;99.90
15556;DHT22;7879;48.660;9.116;2022-11-12T05:16:11;2.70;99.90
15556;DHT22;7879;48.660;9.116;2022-11-12T05:18:37;2.60;99.90
15556;DHT22;7879;48.660;9.116;2022-11-12T05:21:04;2.60;99.90
15556;DHT22;7879;48.660;9.116;2022-11-12T05:23:51;2.60;99.90
15556;DHT22;7879;48.660;9.116;2022-11-12T05:26:18;2.60;99.90
15556;DHT22;7879;48.660;9.116;2022-11-12T05:28:44;2.60;99.90
15556;DHT22;7879;48.660;9.116;2022-11-12T05:31:11;2.50;99.90
15556;DHT22;7879;48.660;9.116;2022-11-12T05:33:38;2.50;99.90
15556;DHT22;7879;48.660;9.116;2022-11-12T05:36:04;2.60;99.90
15556;DHT22;7879;48.660;9.116;2022-11-12T05:38:31;2.60;99.90
15556;DHT22;7879;48.660;9.116;2022-11-12T05:40:58;2.70;99.90
15556;DHT22;7879;48.660;9.116;2022-11-12T05:43:24;2.70;99.90
15556;DHT22;7879;48.660;9.116;2022-11-12T05:45:51;2.70;99.90
15556;DHT22;7879;48.660;9.116;2022-11-12T05:48:18;2.70;99.90
15556;DHT22;7879;48.660;9.116;2022-11-12T05:50:51;2.70;99.90
15556;DHT22;7879;48.660;9.116;2022-11-12T05:53:38;2.80;99.90
15556;DHT22;7879;48.660;9.116;2022-11-12T05:56:06;2.60;99.90
15556;DHT22;7879;48.660;9.116;2022-11-12T05:58:33;2.60;99.90
15556;DHT22;7879;48.660;9.116;2022-11-12T06:01:00;2.70;99.90
15556;DHT22;7879;48.660;9.116;2022-11-12T06:03:27;2.70;99.90
15556;DHT22;7879;48.660;9.116;2022-11-12T06:05:54;2.70;99.90
15556;DHT22;7879;48.660;9.116;2022-11-12T06:08:21;2.60;99.90
15556;DHT22;7879;48.660;9.116;2022-11-12T06:10:52;2.60;99.90
15556;DHT22;7879;48.660;9.116;2022-11-12T06:13:20;2.60;99.90
15556;DHT22;7879;48.660;9.116;2022-11-12T06:15:47;2.60;99.90
15556;DHT22;7879;48.660;9.116;2022-11-12T06:18:14;2.50;99.90
15556;DHT22;7879;48.660;9.116;2022-11-12T06:20:40;2.50;99.90
15556;DHT22;7879;48.660;9.116;2022-11-12T06:23:07;2.50;99.90
15556;DHT22;7879;48.660;9.116;2022-11-12T06:25:34;2.50;99.90
15556;DHT22;7879;48.660;9.116;2022-11-12T06:28:01;2.40;99.90
15556;DHT22;7879;48.660;9.116;2022-11-12T06:30:27;2.50;99.90
15556;DHT22;7879;48.660;9.116;2022-11-12T06:32:54;2.50;99.90
15556;DHT22;7879;48.660;9.116;2022-11-12T06:35:21;2.50;99.90
15556;DHT22;7879;48.660;9.116;2022-11-12T06:37:48;2.50;99.90
15556;DHT22;7879;48.660;9.116;2022-11-12T06:40:15;2.40;99.90
15556;DHT22;7879;48.660;9.116;2022-11-12T06:42:42;2.40;99.90
15556;DHT22;7879;48.660;9.116;2022-11-12T06:45:09;2.30;99.90
15556;DHT22;7879;48.660;9.116;2022-11-12T06:47:36;2.40;99.90
15556;DHT22;7879;48.660;9.116;2022-11-12T06:50:03;2.40;99.90
15556;DHT22;7879;48.660;9.116;2022-11-12T06:52:29;2.40;99.90
15556;DHT22;7879;48.660;9.116;2022-11-12T06:54:56;2.40;99.90
15556;DHT22;7879;48.660;9.116;2022-11-12T06:57:23;2.40;99.90
15556;DHT22;7879;48.660;9.116;2022-11-12T06:59:50;2.30;99.90
15556;DHT22;7879;48.660;9.116;2022-11-12T07:02:17;2.30;99.90
15556;DHT22;7879;48.660;9.116;2022-11-12T07:04:44;2.40;99.90
15556;DHT22;7879;48.660;9.116;2022-11-12T07:07:11;2.40;99.90
15556;DHT22;7879;48.660;9.116;2022-11-12T07:09:37;2.30;99.90
15556;DHT22;7879;48.660;9.116;2022-11-12T07:12:04;2.30;99.90
15556;DHT22;7879;48.660;9.116;2022-11-12T07:14:31;2.30;99.90
15556;DHT22;7879;48.660;9.116;2022-11-12T07:16:58;2.30;99.90
15556;DHT22;7879;48.660;9.116;2022-11-12T07:19:25;2.30;99.90
15556;DHT22;7879;48.660;9.116;2022-11-12T07:21:52;2.40;99.90
15556;DHT22;7879;48.660;9.116;2022-11-12T07:24:18;2.30;99.90
15556;DHT22;7879;48.660;9.116;2022-11-12T07:26:45;2.40;99.90
15556;DHT22;7879;48.660;9.116;2022-11-12T07:29:13;2.40;99.90
15556;DHT22;7879;48.660;9.116;2022-11-12T07:32:00;2.50;99.90
15556;DHT22;7879;48.660;9.116;2022-11-12T07:34:27;2.60;99.90
15556;DHT22;7879;48.660;9.116;2022-11-12T07:36:54;2.60;99.90
15556;DHT22;7879;48.660;9.116;2022-11-12T07:39:21;2.60;99.90
15556;DHT22;7879;48.660;9.116;2022-11-12T07:41:47;2.60;99.90
15556;DHT22;7879;48.660;9.116;2022-11-12T07:44:14;2.60;99.90
15556;DHT22;7879;48.660;9.116;2022-11-12T07:46:44;2.60;99.90
15556;DHT22;7879;48.660;9.116;2022-11-12T07:49:11;2.70;99.90
15556;DHT22;7879;48.660;9.116;2022-11-12T07:51:38;2.70;99.90
15556;DHT22;7879;48.660;9.116;2022-11-12T07:54:05;2.70;99.90
15556;DHT22;7879;48.660;9.116;2022-11-12T07:56:32;2.80;99.90
15556;DHT22;7879;48.660;9.116;2022-11-12T07:58:59;2.80;99.90
15556;DHT22;7879;48.660;9.116;2022-11-12T08:04:00;3.00;99.90
15556;DHT22;7879;48.660;9.116;2022-11-12T08:06:28;3.00;99.90
15556;DHT22;7879;48.660;9.116;2022-11-12T08:08:56;3.00;99.90
15556;DHT22;7879;48.660;9.116;2022-11-12T08:11:23;3.10;99.90
15556;DHT22;7879;48.660;9.116;2022-11-12T08:13:50;3.10;99.90
15556;DHT22;7879;48.660;9.116;2022-11-12T08:16:18;3.20;99.90
15556;DHT22;7879;48.660;9.116;2022-11-12T08:18:45;3.20;99.90
15556;DHT22;7879;48.660;9.116;2022-11-12T08:21:14;3.30;99.90
15556;DHT22;7879;48.660;9.116;2022-11-12T08:23:41;3.30;99.90
15556;DHT22;7879;48.660;9.116;2022-11-12T08:26:11;3.40;99.90
15556;DHT22;7879;48.660;9.116;2022-11-12T08:28:38;3.50;99.90
15556;DHT22;7879;48.660;9.116;2022-11-12T08:31:10;3.60;99.90
15556;DHT22;7879;48.660;9.116;2022-11-12T08:33:38;3.60;99.90
15556;DHT22;7879;48.660;9.116;2022-11-12T08:36:07;3.70;99.90
15556;DHT22;7879;48.660;9.116;2022-11-12T08:38:35;3.70;99.90
15556;DHT22;7879;48.660;9.116;2022-11-12T08:41:03;3.90;99.90
15556;DHT22;7879;48.660;9.116;2022-11-12T08:43:30;3.90;99.90
15556;DHT22;7879;48.660;9.116;2022-11-12T08:45:58;3.90;99.90
15556;DHT22;7879;48.660;9.116;2022-11-12T08:48:26;3.90;99.90
15556;DHT22;7879;48.660;9.116;2022-11-12T08:50:54;4.10;99.90
15556;DHT22;7879;48.660;9.116;2022-11-12T08:53:22;4.20;99.90
15556;DHT22;7879;48.660;9.116;2022-11-12T08:55:52;4.40;99.90
15556;DHT22;7879;48.660;9.116;2022-11-12T08:58:20;4.40;99.90
15556;DHT22;7879;48.660;9.116;2022-11-12T09:00:47;4.30;99.90
15556;DHT22;7879;48.660;9.116;2022-11-12T09:03:17;4.40;99.90
15556;DHT22;7879;48.660;9.116;2022-11-12T09:05:44;4.50;99.90
15556;DHT22;7879;48.660;9.116;2022-11-12T09:08:14;4.60;99.90
15556;DHT22;7879;48.660;9.116;2022-11-12T09:10:41;4.70;99.90
15556;DHT22;7879;48.660;9.116;2022-11-12T09:13:08;4.90;99.90
15556;DHT22;7879;48.660;9.116;2022-11-12T09:15:35;5.00;99.90
15556;DHT22;7879;48.660;9.116;2022-11-12T09:18:06;5.30;99.90
15556;DHT22;7879;48.660;9.116;2022-11-12T09:20:33;5.50;99.90
15556;DHT22;7879;48.660;9.116;2022-11-12T09:23:09;5.80;99.90
15556;DHT22;7879;48.660;9.116;2022-11-12T09:25:36;6.00;99.90
15556;DHT22;7879;48.660;9.116;2022-11-12T09:28:15;6.10;99.90
15556;DHT22;7879;48.660;9.116;2022-11-12T09:30:45;6.30;99.90
15556;DHT22;7879;48.660;9.116;2022-11-12T09:33:18;6.50;99.90
15556;DHT22;7879;48.660;9.116;2022-11-12T09:35:45;6.70;99.90
15556;DHT22;7879;48.660;9.116;2022-11-12T09:38:13;6.80;99.90
15556;DHT22;7879;48.660;9.116;2022-11-12T09:43:25;7.10;99.90
15556;DHT22;7879;48.660;9.116;2022-11-12T09:45:56;7.30;99.90
15556;DHT22;7879;48.660;9.116;2022-11-12T09:48:50;7.30;99.90
15556;DHT22;7879;48.660;9.116;2022-11-12T09:51:27;7.50;99.90
15556;DHT22;7879;48.660;9.116;2022-11-12T09:53:57;7.70;99.90
15556;DHT22;7879;48.660;9.116;2022-11-12T09:56:25;7.80;99.90
15556;DHT22;7879;48.660;9.116;2022-11-12T09:58:54;8.10;99.90
15556;DHT22;7879;48.660;9.116;2022-11-12T10:10:01;8.20;99.90
15556;DHT22;7879;48.660;9.116;2022-11-12T10:15:51;8.20;99.90
15556;DHT22;7879;48.660;9.116;2022-11-12T10:18:58;8.20;99.90
15556;DHT22;7879;48.660;9.116;2022-11-12T10:24:07;8.40;99.90
15556;DHT22;7879;48.660;9.116;2022-11-12T10:26:36;8.40;99.90
15556;DHT22;7879;48.660;9.116;2022-11-12T10:31:37;8.70;99.90
15556;DHT22;7879;48.660;9.116;2022-11-12T10:34:18;8.90;99.90
15556;DHT22;7879;48.660;9.116;2022-11-12T10:36:54;9.00;99.90
15556;DHT22;7879;48.660;9.116;2022-11-12T10:42:04;9.30;99.90
15556;DHT22;7879;48.660;9.116;2022-11-12T10:44:31;9.40;99.90
15556;DHT22;7879;48.660;9.116;2022-11-12T10:52:34;9.70;99.90
15556;DHT22;7879;48.660;9.116;2022-11-12T10:55:37;9.90;99.90
15556;DHT22;7879;48.660;9.116;2022-11-12T11:03:33;10.30;99.90
15556;DHT22;7879;48.660;9.116;2022-11-12T11:06:19;10.40;99.90
15556;DHT22;7879;48.660;9.116;2022-11-12T11:08:52;10.40;99.90
15556;DHT22;7879;48.660;9.116;2022-11-12T11:11:26;10.50;99.90
15556;DHT22;7879;48.660;9.116;2022-11-12T11:13:56;10.60;99.90
15556;DHT22;7879;48.660;9.116;2022-11-12T11:16:26;10.60;99.90
15556;DHT22;7879;48.660;9.116;2022-11-12T11:18:58;10.70;99.90
15556;DHT22;7879;48.660;9.116;2022-11-12T11:30:17;10.70;99.90
15556;DHT22;7879;48.660;9.116;2022-11-12T11:36:17;10.70;99.90
15556;DHT22;7879;48.660;9.116;2022-11-12T11:38:57;10.70;99.90
15556;DHT22;7879;48.660;9.116;2022-11-12T11:44:19;10.70;99.90
15556;DHT22;7879;48.660;9.116;2022-11-12T11:47:11;10.70;99.90
15556;DHT22;7879;48.660;9.116;2022-11-12T11:58:10;10.70;99.90
15556;DHT22;7879;48.660;9.116;2022-11-12T12:06:14;10.70;99.90
15556;DHT22;7879;48.660;9.116;2022-11-12T12:09:12;10.70;99.90
15556;DHT22;7879;48.660;9.116;2022-11-12T12:12:12;10.70;99.90
15556;DHT22;7879;48.660;9.116;2022-11-12T12:14:49;10.70;99.90
15556;DHT22;7879;48.660;9.116;2022-11-12T12:20:51;10.70;99.90
15556;DHT22;7879;48.660;9.116;2022-11-12T12:26:49;10.80;99.90
15556;DHT22;7879;48.660;9.116;2022-11-12T12:29:39;10.80;99.90
15556;DHT22;7879;48.660;9.116;2022-11-12T12:32:32;10.80;99.90
15556;DHT22;7879;48.660;9.116;2022-11-12T12:35:47;10.80;99.90
15556;DHT22;7879;48.660;9.116;2022-11-12T12:38:20;10.80;99.90
15556;DHT22;7879;48.660;9.116;2022-11-12T12:40:56;10.80;99.90
15556;DHT22;7879;48.660;9.116;2022-11-12T12:43:41;10.80;99.90
15556;DHT22;7879;48.660;9.116;2022-11-12T12:46:11;10.80;99.90
15556;DHT22;7879;48.660;9.116;2022-11-12T12:48:41;10.80;99.90
15556;DHT22;7879;48.660;9.116;2022-11-12T12:51:17;10.80;99.90
15556;DHT22;7879;48.660;9.116;2022-11-12T12:57:03;10.80;99.90
15556;DHT22;7879;48.660;9.116;2022-11-12T12:59:34;10.80;99.90
15556;DHT22;7879;48.660;9.116;2022-11-12T13:02:22;10.80;99.90
15556;DHT22;7879;48.660;9.116;2022-11-12T13:04:55;10.80;99.90
15556;DHT22;7879;48.660;9.116;2022-11-12T13:07:46;10.70;99.90
15556;DHT22;7879;48.660;9.116;2022-11-12T13:13:26;10.70;99.90
15556;DHT22;7879;48.660;9.116;2022-11-12T13:15:58;10.70;99.90
15556;DHT22;7879;48.660;9.116;2022-11-12T13:21:11;10.80;99.90
15556;DHT22;7879;48.660;9.116;2022-11-12T13:24:07;10.80;99.90
15556;DHT22;7879;48.660;9.116;2022-11-12T13:32:36;10.90;99.90
15556;DHT22;7879;48.660;9.116;2022-11-12T13:40:15;10.70;99.90
15556;DHT22;7879;48.660;9.116;2022-11-12T13:42:45;10.70;99.90
15556;DHT22;7879;48.660;9.116;2022-11-12T13:45:25;10.70;99.90
15556;DHT22;7879;48.660;9.116;2022-11-12T13:47:52;10.70;99.90
15556;DHT22;7879;48.660;9.116;2022-11-12T13:50:21;10.70;99.90
15556;DHT22;7879;48.660;9.116;2022-11-12T13:52:49;10.70;99.90
15556;DHT22;7879;48.660;9.116;2022-11-12T13:55:18;10.70;99.90
15556;DHT22;7879;48.660;9.116;2022-11-12T13:57:50;10.70;99.90
15556;DHT22;7879;48.660;9.116;2022-11-12T14:03:03;10.70;99.90
15556;DHT22;7879;48.660;9.116;2022-11-12T14:05:32;10.70;99.90
15556;DHT22;7879;48.660;9.116;2022-11-12T14:08:24;10.70;99.90
15556;DHT22;7879;48.660;9.116;2022-11-12T14:14:11;10.70;99.90
15556;DHT22;7879;48.660;9.116;2022-11-12T14:19:59;10.70;99.90
15556;DHT22;7879;48.660;9.116;2022-11-12T14:22:42;10.70;99.90
15556;DHT22;7879;48.660;9.116;2022-11-12T14:25:20;10.70;99.90
15556;DHT22;7879;48.660;9.116;2022-11-12T14:27:49;10.70;99.90
15556;DHT22;7879;48.660;9.116;2022-11-12T14:30:22;10.70;99.90
15556;DHT22;7879;48.660;9.116;2022-11-12T14:32:58;10.70;99.90
15556;DHT22;7879;48.660;9.116;2022-11-12T14:35:45;10.60;99.90
15556;DHT22;7879;48.660;9.116;2022-11-12T14:40:53;10.60;99.90
15556;DHT22;7879;48.660;9.116;2022-11-12T14:43:44;10.60;99.90
15556;DHT22;7879;48.660;9.116;2022-11-12T14:46:42;10.60;99.90
15556;DHT22;7879;48.660;9.116;2022-11-12T14:52:14;10.60;99.90
15556;DHT22;7879;48.660;9.116;2022-11-12T14:54:51;10.60;99.90
15556;DHT22;7879;48.660;9.116;2022-11-12T14:57:26;10.50;99.90
15556;DHT22;7879;48.660;9.116;2022-11-12T14:59:53;10.50;99.90
15556;DHT22;7879;48.660;9.116;2022-11-12T15:02:31;10.50;99.90
15556;DHT22;7879;48.660;9.116;2022-11-12T15:05:18;10.50;99.90
15556;DHT22;7879;48.660;9.116;2022-11-12T15:07:52;10.50;99.90
15556;DHT22;7879;48.660;9.116;2022-11-12T15:10:39;10.50;99.90
15556;DHT22;7879;48.660;9.116;2022-11-12T15:13:10;10.40;99.90
15556;DHT22;7879;48.660;9.116;2022-11-12T15:16:22;10.40;99.90
15556;DHT22;7879;48.660;9.116;2022-11-12T15:19:24;10.40;99.90
15556;DHT22;7879;48.660;9.116;2022-11-12T15:21:57;10.40;99.90
15556;DHT22;7879;48.660;9.116;2022-11-12T15:24:34;10.30;99.90
15556;DHT22;7879;48.660;9.116;2022-11-12T15:27:26;10.30;99.90
15556;DHT22;7879;48.660;9.116;2022-11-12T15:30:28;10.30;99.90
15556;DHT22;7879;48.660;9.116;2022-11-12T15:35:38;10.20;99.90
15556;DHT22;7879;48.660;9.116;2022-11-12T15:38:19;10.20;99.90
15556;DHT22;7879;48.660;9.116;2022-11-12T15:40:53;10.20;99.90
15556;DHT22;7879;48.660;9.116;2022-11-12T15:43:36;10.10;99.90
15556;DHT22;7879;48.660;9.116;2022-11-12T15:46:13;10.10;99.90
15556;DHT22;7879;48.660;9.116;2022-11-12T15:48:43;10.00;99.90
15556;DHT22;7879;48.660;9.116;2022-11-12T15:51:10;9.90;99.90
15556;DHT22;7879;48.660;9.116;2022-11-12T15:53:37;9.90;99.90
15556;DHT22;7879;48.660;9.116;2022-11-12T15:56:05;9.80;99.90
15556;DHT22;7879;48.660;9.116;2022-11-12T15:58:35;9.70;99.90
15556;DHT22;7879;48.660;9.116;2022-11-12T16:01:03;9.60;99.90
15556;DHT22;7879;48.660;9.116;2022-11-12T16:03:33;9.60;99.90
15556;DHT22;7879;48.660;9.116;2022-11-12T16:06:00;9.40;99.90
15556;DHT22;7879;48.660;9.116;2022-11-12T16:08:34;9.30;99.90
15556;DHT22;7879;48.660;9.116;2022-11-12T16:11:01;9.20;99.90
15556;DHT22;7879;48.660;9.116;2022-11-12T16:13:30;9.20;99.90
15556;DHT22;7879;48.660;9.116;2022-11-12T16:16:01;9.10;99.90
15556;DHT22;7879;48.660;9.116;2022-11-12T16:18:29;9.00;99.90
15556;DHT22;7879;48.660;9.116;2022-11-12T16:20:55;8.90;99.90
15556;DHT22;7879;48.660;9.116;2022-11-12T16:23:22;8.70;99.90
15556;DHT22;7879;48.660;9.116;2022-11-12T16:25:49;8.80;99.90
15556;DHT22;7879;48.660;9.116;2022-11-12T16:28:17;8.80;99.90
15556;DHT22;7879;48.660;9.116;2022-11-12T16:30:46;8.70;99.90
15556;DHT22;7879;48.660;9.116;2022-11-12T16:33:14;8.60;99.90
15556;DHT22;7879;48.660;9.116;2022-11-12T16:35:41;8.50;99.90
15556;DHT22;7879;48.660;9.116;2022-11-12T16:38:11;8.50;99.90
15556;DHT22;7879;48.660;9.116;2022-11-12T16:40:38;8.50;99.90
15556;DHT22;7879;48.660;9.116;2022-11-12T16:43:06;8.40;99.90
15556;DHT22;7879;48.660;9.116;2022-11-12T16:45:34;8.30;99.90
15556;DHT22;7879;48.660;9.116;2022-11-12T16:48:19;8.20;99.90
15556;DHT22;7879;48.660;9.116;2022-11-12T16:50:47;8.10;99.90
15556;DHT22;7879;48.660;9.116;2022-11-12T16:53:14;8.10;99.90
15556;DHT22;7879;48.660;9.116;2022-11-12T16:55:41;8.10;99.90
15556;DHT22;7879;48.660;9.116;2022-11-12T16:58:13;8.00;99.90
15556;DHT22;7879;48.660;9.116;2022-11-12T17:00:41;8.00;99.90
15556;DHT22;7879;48.660;9.116;2022-11-12T17:03:12;7.90;99.90
15556;DHT22;7879;48.660;9.116;2022-11-12T17:05:39;7.80;99.90
15556;DHT22;7879;48.660;9.116;2022-11-12T17:08:07;7.80;99.90
15556;DHT22;7879;48.660;9.116;2022-11-12T17:10:34;7.80;99.90
15556;DHT22;7879;48.660;9.116;2022-11-12T17:13:01;7.70;99.90
15556;DHT22;7879;48.660;9.116;2022-11-12T17:15:28;7.70;99.90
15556;DHT22;7879;48.660;9.116;2022-11-12T17:17:55;7.50;99.90
15556;DHT22;7879;48.660;9.116;2022-11-12T17:20:22;7.50;99.90
15556;DHT22;7879;48.660;9.116;2022-11-12T17:22:48;7.40;99.90
15556;DHT22;7879;48.660;9.116;2022-11-12T17:25:15;7.40;99.90
15556;DHT22;7879;48.660;9.116;2022-11-12T17:27:42;7.40;99.90
15556;DHT22;7879;48.660;9.116;2022-11-12T17:30:09;7.30;99.90
15556;DHT22;7879;48.660;9.116;2022-11-12T17:32:41;7.30;99.90
15556;DHT22;7879;48.660;9.116;2022-11-12T17:35:25;7.20;99.90
15556;DHT22;7879;48.660;9.116;2022-11-12T17:37:51;7.10;99.90
15556;DHT22;7879;48.660;9.116;2022-11-12T17:40:18;7.10;99.90
15556;DHT22;7879;48.660;9.116;2022-11-12T17:42:44;7.10;99.90
15556;DHT22;7879;48.660;9.116;2022-11-12T17:45:12;7.00;99.90
15556;DHT22;7879;48.660;9.116;2022-11-12T17:47:38;6.90;99.90
15556;DHT22;7879;48.660;9.116;2022-11-12T17:50:06;7.00;99.90
15556;DHT22;7879;48.660;9.116;2022-11-12T17:52:33;7.00;99.90
15556;DHT22;7879;48.660;9.116;2022-11-12T17:55:00;6.90;99.90
15556;DHT22;7879;48.660;9.116;2022-11-12T17:57:26;6.80;99.90
15556;DHT22;7879;48.660;9.116;2022-11-12T17:59:53;6.80;99.90
15556;DHT22;7879;48.660;9.116;2022-11-12T18:02:20;6.70;99.90
15556;DHT22;7879;48.660;9.116;2022-11-12T18:04:47;6.70;99.90
15556;DHT22;7879;48.660;9.116;2022-11-12T18:07:13;6.60;99.90
15556;DHT22;7879;48.660;9.116;2022-11-12T18:09:40;6.60;99.90
15556;DHT22;7879;48.660;9.116;2022-11-12T18:12:07;6.60;99.90
15556;DHT22;7879;48.660;9.116;2022-11-12T18:14:34;6.50;99.90